Aérodrome :
LOGIN :

S'inscrire | Disclaimer

   EN    FR    IT 

 










Légende :    VFR   VFR Marginal   IFR   IFR Intensif   IFR Très Intensif
Visi : 
Plafond : 
>= 8 km
>= 3000ft
5 à 8 km
1000 à 3000 ft
1500m à 5 km
500 à 1000 ft
800 à 1500m
200 à 500 ft
< 800m
< 200 ft
Symboles :   Orages  Brouillard  Fortes neiges  Fortes précipitations  Vent > 20 kt
SIGMETs :   Divers  Orages  Givrage  Turbulence  Onde Orograph.  Cendres Volcan.







- Altitude de l'aérodrome : 423 ft
- Code IATA : PIS
- Voir les cartes d'approche


LFBI - Poitiers

DERNIER METAR :
  • 220400Z AUTO 20002KT 3500 0700 R21/2600D BCFG NSC 09/09 Q1012 BECMG 9999 NSW

METARs EXPIRÉS :
  • 220330Z AUTO 21001KT CAVOK 10/10 Q1012 NOSIG
  • 220300Z AUTO 25001KT 4400 BR NSC 10/09 Q1012 BECMG 9999 NSW
  • 220230Z AUTO VRB01KT 5000 2400 BR NSC 11/10 Q1012 NOSIG
  • 220200Z AUTO 00000KT CAVOK 12/11 Q1012 NOSIG
  • 220130Z AUTO VRB02KT CAVOK 12/12 Q1012 NOSIG

TAF AMD TAF LFBI
Valide du 22 à 03h jusqu'au 23 à 00h UTC


220322Z 2203/2224 30004KT CAVOK
TEMPO 2203/2205 4000 BR
PROB40
TEMPO 2211/2221 -SHRA FEW050CB SCT060TCU
PROB30
TEMPO 2212/2216 4000 SHRA SCT050CB BKN060TCU
Pas de NOTAMs connus pour ce terrain.



MET'MAP, la Météo Aéronautique d'un coup d'oeil ! - Copyright ORBIFLY Décembre 2007 - Disclaimer

ORBIFLY MET'MAP TEAM :

Programmation & Développement : Alexandra Zaïnal
Conception & Développement : Baudouin d'Aumeries
Co-Programmation & Développement : Marc-Olivier Méhu
Soutien technique & logistique : Manuel Goepfert

Contact : metmap@orbifly.com




SOURCES & CREDITS :

   NOAA